Terminal Aerodrome Forecast
Issued by NWS Knoxville/Tri Cities, TN

Home | Current Version | Previous Version | Text Only | Print | Product List | Glossary On
Versions: 1 2 3 4 5 6 7 8 9 10 11 12 13 14 15 16 17 18 19 20 21 22 23 24 25 26 27 28 29 30 31 32 33 34 35 36 37 38 39 40 41 42 43 44 45 46 47 48 49
000
FTUS44 KMRX 111723
TAFTYS
TAF
KTYS 111723Z 1118/1218 VRB05KT P6SM SCT050
     FM120600 03003KT P6SM OVC050
     FM121100 04003KT 6SM BR OVC025
     FM121300 00000KT 2SM -SN BR OVC015
     FM121500 00000KT 2SM -SN BR OVC007=

USA.gov is the U.S. government's official web portal to all federal, state and local government web resources and services.